createdAt,value
2018-10-06T00:00:47.040Z,0
2018-10-06T00:01:57.237Z,0
2018-10-06T00:03:07.254Z,0
2018-10-06T00:04:17.401Z,0
2018-10-06T00:05:27.540Z,0
2018-10-06T00:06:37.739Z,0
2018-10-06T00:07:47.885Z,0
2018-10-06T00:08:58.133Z,0
2018-10-06T00:10:08.377Z,0
2018-10-06T00:11:18.510Z,0
2018-10-06T00:12:28.708Z,0
2018-10-06T00:13:38.855Z,0
2018-10-06T00:14:49.052Z,0
2018-10-06T00:15:59.193Z,0
2018-10-06T00:17:09.309Z,0
2018-10-06T00:18:19.202Z,0
2018-10-06T00:19:29.380Z,0
2018-10-06T00:20:39.234Z,0
2018-10-06T00:21:49.406Z,0
2018-10-06T00:22:59.568Z,0
2018-10-06T00:24:09.708Z,0
2018-10-06T00:25:19.855Z,0
2018-10-06T00:26:29.982Z,0
2018-10-06T00:27:40.149Z,0
2018-10-06T00:28:49.929Z,0
2018-10-06T00:29:59.725Z,0
2018-10-06T00:31:09.900Z,0
2018-10-06T00:32:20.087Z,0
2018-10-06T00:33:30.285Z,0
2018-10-06T00:34:40.434Z,0
2018-10-06T00:35:50.371Z,0
2018-10-06T00:37:00.272Z,0
2018-10-06T00:38:10.458Z,0
2018-10-06T00:39:20.595Z,0
2018-10-06T00:40:30.759Z,0
2018-10-06T00:41:40.903Z,0
2018-10-06T00:42:51.067Z,0
2018-10-06T00:44:01.293Z,0
2018-10-06T00:45:11.632Z,0
2018-10-06T00:46:22.778Z,0
2018-10-06T00:47:32.565Z,0
2018-10-06T00:48:42.718Z,0
2018-10-06T00:49:53.923Z,0
2018-10-06T00:51:04.932Z,0
2018-10-06T00:52:15.090Z,0
2018-10-06T00:53:25.224Z,0
2018-10-06T00:54:35.234Z,0
2018-10-06T00:55:45.211Z,0
2018-10-06T00:56:56.332Z,0
2018-10-06T00:58:06.136Z,0
2018-10-06T00:59:16.274Z,0
2018-10-06T01:00:26.402Z,0
2018-10-06T01:01:36.585Z,0
2018-10-06T01:02:46.802Z,0
2018-10-06T01:03:57.024Z,0
2018-10-06T01:05:07.034Z,0
2018-10-06T01:06:17.190Z,0
2018-10-06T01:07:27.304Z,0
2018-10-06T01:08:37.462Z,0
2018-10-06T01:09:47.615Z,0
2018-10-06T01:10:57.817Z,0
2018-10-06T01:12:07.941Z,0
2018-10-06T01:13:18.114Z,0
2018-10-06T01:14:28.256Z,0
2018-10-06T01:15:38.404Z,0
2018-10-06T01:16:48.572Z,0
2018-10-06T01:17:58.719Z,0
2018-10-06T01:19:08.849Z,0
2018-10-06T01:20:19.012Z,0
2018-10-06T01:21:28.935Z,0
2018-10-06T01:22:39.089Z,0
2018-10-06T01:23:49.342Z,0
2018-10-06T01:24:59.589Z,0
2018-10-06T01:26:09.731Z,0
2018-10-06T01:27:19.868Z,0
2018-10-06T01:28:29.831Z,0
2018-10-06T01:29:40.127Z,0
2018-10-06T01:30:50.293Z,0
2018-10-06T01:32:00.477Z,0
2018-10-06T01:33:10.643Z,0
2018-10-06T01:34:20.837Z,0
2018-10-06T01:35:30.808Z,0
2018-10-06T01:36:40.678Z,0
2018-10-06T01:37:50.821Z,0
2018-10-06T01:39:00.831Z,0
2018-10-06T01:40:10.960Z,0
2018-10-06T01:41:21.122Z,0
2018-10-06T01:42:31.246Z,0
2018-10-06T01:43:41.383Z,0
2018-10-06T01:44:51.506Z,0
2018-10-06T01:46:01.423Z,0
2018-10-06T01:47:11.540Z,0
2018-10-06T01:48:21.441Z,0
2018-10-06T01:49:31.573Z,0
2018-10-06T01:50:41.736Z,0
2018-10-06T01:51:51.637Z,0
2018-10-06T01:53:02.730Z,0
2018-10-06T01:54:13.062Z,0
2018-10-06T01:55:23.212Z,0
2018-10-06T01:56:33.351Z,0
2018-10-06T01:57:43.714Z,0
2018-10-06T01:58:53.827Z,0
2018-10-06T02:00:04.942Z,0
2018-10-06T02:01:15.110Z,0
2018-10-06T02:02:25.255Z,0
2018-10-06T02:03:35.481Z,0
2018-10-06T02:04:45.371Z,0
2018-10-06T02:05:56.464Z,0
2018-10-06T02:07:06.899Z,0
2018-10-06T02:08:17.033Z,0
2018-10-06T02:09:27.168Z,0
2018-10-06T02:10:37.288Z,0
2018-10-06T02:11:47.075Z,0
2018-10-06T02:12:57.457Z,0
2018-10-06T02:14:07.595Z,0
2018-10-06T02:15:17.771Z,0
2018-10-06T02:16:27.647Z,0
2018-10-06T02:17:37.821Z,0
2018-10-06T02:18:48.055Z,0
2018-10-06T02:19:58.210Z,0
2018-10-06T02:21:08.363Z,0
2018-10-06T02:22:18.137Z,0
2018-10-06T02:23:28.322Z,0
2018-10-06T02:24:38.468Z,0
2018-10-06T02:25:48.645Z,0
2018-10-06T02:26:58.501Z,0
2018-10-06T02:28:08.643Z,0
2018-10-06T02:29:18.792Z,0
2018-10-06T02:30:28.722Z,0
2018-10-06T02:31:38.858Z,0
2018-10-06T02:32:49.137Z,0
2018-10-06T02:33:58.995Z,0
2018-10-06T02:35:09.435Z,0
2018-10-06T02:36:19.606Z,0
2018-10-06T02:37:30.013Z,0
2018-10-06T02:38:40.268Z,0
2018-10-06T02:39:50.486Z,0
2018-10-06T02:41:00.641Z,0
2018-10-06T02:42:10.808Z,0
2018-10-06T02:43:20.738Z,0
2018-10-06T02:44:30.608Z,0
2018-10-06T02:45:40.763Z,0
2018-10-06T02:46:50.956Z,0
2018-10-06T02:48:01.111Z,0
2018-10-06T02:49:11.239Z,0
2018-10-06T02:50:21.373Z,0
2018-10-06T02:51:31.990Z,0
2018-10-06T02:52:42.321Z,0
2018-10-06T02:53:52.507Z,0
2018-10-06T02:55:03.616Z,0
2018-10-06T02:56:13.738Z,0
2018-10-06T02:57:23.872Z,0
2018-10-06T02:58:34.100Z,0
2018-10-06T02:59:44.304Z,0
2018-10-06T03:00:54.481Z,0
2018-10-06T03:02:04.653Z,0
2018-10-06T03:03:14.837Z,0
2018-10-06T03:04:24.990Z,0
2018-10-06T03:05:35.279Z,0
2018-10-06T03:06:45.421Z,0
2018-10-06T03:07:55.577Z,0
2018-10-06T03:09:05.720Z,0
2018-10-06T03:10:16.094Z,0
2018-10-06T03:11:26.253Z,0
2018-10-06T03:12:36.372Z,0
2018-10-06T03:13:45.967Z,0
2018-10-06T03:14:55.865Z,0
2018-10-06T03:16:06.029Z,0
2018-10-06T03:17:16.162Z,0
2018-10-06T03:18:26.017Z,0
2018-10-06T03:19:36.191Z,0
2018-10-06T03:20:47.306Z,0
2018-10-06T03:21:57.443Z,0
2018-10-06T03:23:07.842Z,0
2018-10-06T03:24:17.965Z,0
2018-10-06T03:25:28.085Z,0
2018-10-06T03:26:38.328Z,0
2018-10-06T03:27:48.584Z,0
2018-10-06T03:28:58.369Z,0
2018-10-06T03:30:08.527Z,0
2018-10-06T03:31:18.901Z,0
2018-10-06T03:32:29.057Z,0
2018-10-06T03:33:39.406Z,0
2018-10-06T03:34:50.516Z,0
2018-10-06T03:36:00.398Z,0
2018-10-06T03:37:10.522Z,0
2018-10-06T03:38:20.638Z,0
2018-10-06T03:39:30.514Z,0
2018-10-06T03:40:40.701Z,0
2018-10-06T03:41:50.833Z,0
2018-10-06T03:43:00.987Z,0
2018-10-06T03:44:11.351Z,0
2018-10-06T03:45:21.477Z,0
2018-10-06T03:46:31.631Z,0
2018-10-06T03:47:41.820Z,0
2018-10-06T03:48:51.969Z,0
2018-10-06T03:50:01.734Z,0
2018-10-06T03:51:12.084Z,0
2018-10-06T03:52:22.029Z,0
2018-10-06T03:53:33.106Z,0
2018-10-06T03:54:43.238Z,0
2018-10-06T03:55:53.117Z,0
2018-10-06T03:57:03.248Z,0
2018-10-06T03:58:13.498Z,0
2018-10-06T03:59:23.620Z,0
2018-10-06T04:00:33.776Z,0
2018-10-06T04:01:44.068Z,0
2018-10-06T04:02:54.320Z,0
2018-10-06T04:04:04.500Z,0
2018-10-06T04:05:14.386Z,0
2018-10-06T04:06:24.524Z,0
2018-10-06T04:07:34.296Z,0
2018-10-06T04:08:44.189Z,0
2018-10-06T04:09:54.323Z,0
2018-10-06T04:11:04.502Z,0
2018-10-06T04:12:14.637Z,0
2018-10-06T04:13:24.767Z,0
2018-10-06T04:14:34.670Z,0
2018-10-06T04:15:44.796Z,0
2018-10-06T04:16:55.019Z,0
2018-10-06T04:18:05.392Z,0
2018-10-06T04:19:15.256Z,0
2018-10-06T04:20:25.399Z,0
2018-10-06T04:21:35.580Z,0
2018-10-06T04:22:45.705Z,0
2018-10-06T04:23:55.573Z,0
2018-10-06T04:25:05.919Z,0
2018-10-06T04:26:16.114Z,0
2018-10-06T04:27:26.225Z,0
2018-10-06T04:28:36.573Z,0
2018-10-06T04:29:46.709Z,0
2018-10-06T04:30:57.164Z,0
2018-10-06T04:32:07.550Z,0
2018-10-06T04:33:17.681Z,0
2018-10-06T04:34:27.822Z,0
2018-10-06T04:35:37.961Z,0
2018-10-06T04:36:47.860Z,0
2018-10-06T04:37:58.019Z,0
2018-10-06T04:39:08.321Z,0
2018-10-06T04:40:18.451Z,0
2018-10-06T04:41:28.691Z,0
2018-10-06T04:42:38.191Z,0
2018-10-06T04:43:48.110Z,0
2018-10-06T04:44:58.412Z,0
2018-10-06T04:46:08.330Z,0
2018-10-06T04:47:18.445Z,0
2018-10-06T04:48:28.575Z,0
2018-10-06T04:49:38.772Z,0
2018-10-06T04:50:49.018Z,0
2018-10-06T04:51:59.175Z,0
2018-10-06T04:53:09.662Z,0
2018-10-06T04:54:19.899Z,0
2018-10-06T04:55:30.017Z,0
2018-10-06T04:56:40.385Z,0
2018-10-06T04:57:50.273Z,0
2018-10-06T04:59:00.431Z,0
2018-10-06T05:00:10.766Z,0
2018-10-06T05:01:20.904Z,0
2018-10-06T05:02:30.842Z,0
2018-10-06T05:03:41.463Z,0
2018-10-06T05:04:51.585Z,0
2018-10-06T05:06:01.796Z,0
2018-10-06T05:07:11.936Z,0
2018-10-06T05:08:23.277Z,0
2018-10-06T05:09:33.427Z,0
2018-10-06T05:10:43.783Z,0
2018-10-06T05:11:53.894Z,0
2018-10-06T05:13:04.073Z,0
2018-10-06T05:14:14.256Z,0
2018-10-06T05:15:24.371Z,0
2018-10-06T05:16:34.378Z,0
2018-10-06T05:17:44.630Z,0
2018-10-06T05:18:55.750Z,0
2018-10-06T05:20:05.637Z,5
2018-10-06T05:21:15.788Z,5
2018-10-06T05:22:25.922Z,5
2018-10-06T05:23:36.455Z,5
2018-10-06T05:24:46.670Z,5
2018-10-06T05:25:56.799Z,5
2018-10-06T05:27:06.923Z,5
2018-10-06T05:28:16.804Z,10
2018-10-06T05:29:26.925Z,10
2018-10-06T05:30:37.042Z,10
2018-10-06T05:31:47.189Z,10
2018-10-06T05:32:57.323Z,10
2018-10-06T05:34:07.744Z,10
2018-10-06T05:35:17.927Z,15
2018-10-06T05:36:28.127Z,15
2018-10-06T05:37:38.419Z,15
2018-10-06T05:38:48.585Z,15
2018-10-06T05:39:58.881Z,20
2018-10-06T05:41:09.029Z,20
2018-10-06T05:42:18.906Z,20
2018-10-06T05:43:29.043Z,20
2018-10-06T05:44:39.199Z,25
2018-10-06T05:45:49.397Z,25
2018-10-06T05:46:59.590Z,25
2018-10-06T05:48:09.750Z,25
2018-10-06T05:49:19.734Z,25
2018-10-06T05:50:29.883Z,30
2018-10-06T05:51:40.010Z,30
2018-10-06T05:52:50.200Z,30
2018-10-06T05:54:00.161Z,30
2018-10-06T05:55:10.298Z,35
2018-10-06T05:56:20.384Z,35
2018-10-06T05:57:30.532Z,35
2018-10-06T05:58:40.464Z,35
2018-10-06T05:59:50.634Z,40
2018-10-06T06:01:00.819Z,40
2018-10-06T06:02:10.437Z,40
2018-10-06T06:03:20.556Z,40
2018-10-06T06:04:30.682Z,40
2018-10-06T06:05:40.681Z,40
2018-10-06T06:06:50.850Z,45
2018-10-06T06:08:00.986Z,45
2018-10-06T06:09:11.200Z,45
2018-10-06T06:10:21.686Z,50
2018-10-06T06:11:31.861Z,50
2018-10-06T06:12:41.749Z,50
2018-10-06T06:13:51.884Z,50
2018-10-06T06:15:02.790Z,50
2018-10-06T06:16:12.946Z,50
2018-10-06T06:17:23.090Z,50
2018-10-06T06:18:33.240Z,55
2018-10-06T06:19:43.501Z,55
2018-10-06T06:20:53.631Z,55
2018-10-06T06:22:03.521Z,55
2018-10-06T06:23:13.660Z,55
2018-10-06T06:24:23.551Z,55
2018-10-06T06:25:33.679Z,60
2018-10-06T06:26:43.931Z,60
2018-10-06T06:27:53.892Z,60
2018-10-06T06:29:04.129Z,60
2018-10-06T06:30:14.426Z,65
2018-10-06T06:31:24.746Z,65
2018-10-06T06:32:34.998Z,65
2018-10-06T06:33:45.137Z,65
2018-10-06T06:34:55.313Z,65
2018-10-06T06:36:05.556Z,65
2018-10-06T06:37:15.461Z,65
2018-10-06T06:38:25.981Z,65
2018-10-06T06:39:36.172Z,70
2018-10-06T06:40:46.425Z,70
2018-10-06T06:41:56.625Z,70
2018-10-06T06:43:06.508Z,70
2018-10-06T06:44:17.244Z,70
2018-10-06T06:45:27.469Z,75
2018-10-06T06:46:37.360Z,80
2018-10-06T06:47:47.497Z,80
2018-10-06T06:48:57.632Z,80
2018-10-06T06:50:07.822Z,85
2018-10-06T06:51:17.953Z,90
2018-10-06T06:52:28.156Z,95
2018-10-06T06:53:38.141Z,90
2018-10-06T06:54:48.384Z,100
2018-10-06T06:55:58.276Z,100
2018-10-06T06:57:08.613Z,100
2018-10-06T06:58:18.819Z,100
2018-10-06T06:59:29.087Z,110
2018-10-06T07:00:39.268Z,110
2018-10-06T07:01:49.453Z,105
2018-10-06T07:02:59.721Z,105
2018-10-06T07:04:09.897Z,120
2018-10-06T07:05:19.817Z,125
2018-10-06T07:06:29.956Z,130
2018-10-06T07:07:40.147Z,125
2018-10-06T07:08:50.344Z,125
2018-10-06T07:10:00.494Z,125
2018-10-06T07:11:10.438Z,125
2018-10-06T07:12:20.585Z,120
2018-10-06T07:13:30.781Z,130
2018-10-06T07:14:40.772Z,125
2018-10-06T07:15:51.221Z,130
2018-10-06T07:17:01.382Z,135
2018-10-06T07:18:11.415Z,135
2018-10-06T07:19:21.554Z,140
2018-10-06T07:20:31.741Z,110
2018-10-06T07:21:41.989Z,150
2018-10-06T07:22:52.131Z,275
2018-10-06T07:24:02.301Z,405
2018-10-06T07:25:12.513Z,455
2018-10-06T07:26:22.656Z,390
2018-10-06T07:27:32.802Z,295
2018-10-06T07:28:43.447Z,540
2018-10-06T07:31:06.248Z,390
2018-10-06T07:32:17.397Z,485
2018-10-06T07:33:27.168Z,530
2018-10-06T07:34:40.736Z,605
2018-10-06T07:35:52.127Z,620
2018-10-06T07:37:02.680Z,610
2018-10-06T07:38:12.556Z,610
2018-10-06T07:39:22.736Z,630
2018-10-06T07:40:32.877Z,615
2018-10-06T07:41:43.011Z,655
2018-10-06T07:42:52.928Z,665
2018-10-06T07:44:03.148Z,665
2018-10-06T07:45:13.632Z,630
2018-10-06T07:46:23.796Z,685
2018-10-06T07:47:34.385Z,685
2018-10-06T07:48:44.767Z,455
2018-10-06T07:49:54.938Z,780
2018-10-06T07:51:05.097Z,785
2018-10-06T07:52:15.379Z,700
2018-10-06T07:53:25.730Z,775
2018-10-06T07:54:35.695Z,870
2018-10-06T07:55:45.996Z,905
2018-10-06T07:56:56.648Z,920
2018-10-06T07:58:06.716Z,930
2018-10-06T07:59:17.475Z,855
2018-10-06T08:00:27.652Z,665
2018-10-06T08:01:38.709Z,875
2018-10-06T08:02:48.916Z,950
2018-10-06T08:03:59.250Z,935
2018-10-06T08:05:09.441Z,820
2018-10-06T08:06:19.782Z,905
2018-10-06T08:07:29.957Z,885
2018-10-06T08:08:40.154Z,875
2018-10-06T08:09:50.514Z,880
2018-10-06T08:11:00.817Z,900
2018-10-06T08:12:10.995Z,760
2018-10-06T08:13:20.969Z,910
2018-10-06T08:14:31.279Z,920
2018-10-06T08:15:41.642Z,910
2018-10-06T08:16:51.906Z,905
2018-10-06T08:18:02.163Z,925
2018-10-06T08:19:12.375Z,880
2018-10-06T08:20:22.602Z,895
2018-10-06T08:21:32.776Z,950
2018-10-06T08:22:42.969Z,950
2018-10-06T08:23:53.159Z,955
2018-10-06T08:25:03.305Z,965
2018-10-06T08:26:13.444Z,975
2018-10-06T08:27:23.639Z,990
2018-10-06T08:28:33.824Z,995
2018-10-06T08:29:43.958Z,995
2018-10-06T08:30:54.154Z,975
2018-10-06T08:32:05.319Z,1025
2018-10-06T08:33:15.617Z,1005
2018-10-06T08:34:25.502Z,995
2018-10-06T08:35:35.664Z,965
2018-10-06T08:36:45.838Z,950
2018-10-06T08:37:55.989Z,950
2018-10-06T08:39:06.192Z,1065
2018-10-06T08:40:16.587Z,1060
2018-10-06T08:41:26.750Z,1015
2018-10-06T08:42:37.278Z,940
2018-10-06T08:43:47.681Z,1110
2018-10-06T08:44:57.512Z,1120
2018-10-06T08:46:07.682Z,1085
2018-10-06T08:47:17.843Z,1125
2018-10-06T08:48:27.751Z,1155
2018-10-06T08:49:38.272Z,1160
2018-10-06T08:50:48.464Z,1170
2018-10-06T08:52:03.571Z,1185
2018-10-06T08:53:14.663Z,1220
2018-10-06T08:54:24.867Z,1235
2018-10-06T08:55:38.007Z,1240
2018-10-06T08:57:23.386Z,1010
2018-10-06T09:02:21.039Z,790
2018-10-06T09:03:31.254Z,995
2018-10-06T09:04:41.309Z,890
2018-10-06T09:05:51.208Z,895
2018-10-06T09:07:01.127Z,1025
2018-10-06T09:08:11.356Z,1075
2018-10-06T09:09:21.192Z,1185
2018-10-06T09:10:32.321Z,1210
2018-10-06T09:11:42.575Z,1110
2018-10-06T09:12:52.809Z,815
2018-10-06T09:14:03.183Z,760
2018-10-06T09:15:13.327Z,925
2018-10-06T09:16:23.549Z,1130
2018-10-06T09:17:33.800Z,1210
2018-10-06T09:18:44.011Z,1205
2018-10-06T09:19:54.225Z,1270
2018-10-06T09:21:04.190Z,1230
2018-10-06T09:22:14.385Z,1295
2018-10-06T09:23:24.315Z,1315
2018-10-06T09:24:34.580Z,1280
2018-10-06T09:25:45.134Z,1275
2018-10-06T09:26:55.295Z,1275
2018-10-06T09:28:05.488Z,1165
2018-10-06T09:29:15.673Z,1330
2018-10-06T09:30:25.831Z,1315
2018-10-06T09:31:37.050Z,1310
2018-10-06T09:32:47.246Z,1325
2018-10-06T09:33:57.982Z,1335
2018-10-06T09:35:07.638Z,1345
2018-10-06T09:36:17.820Z,1335
2018-10-06T09:37:27.636Z,1340
2018-10-06T09:38:37.845Z,1365
2018-10-06T09:39:54.180Z,1385
2018-10-06T09:41:04.406Z,1360
2018-10-06T09:42:15.732Z,1375
2018-10-06T09:43:26.063Z,1395
2018-10-06T09:45:49.217Z,1400
2018-10-06T09:46:59.409Z,1415
2018-10-06T09:48:10.466Z,1425
2018-10-06T09:49:20.677Z,1410
2018-10-06T09:50:31.252Z,1435
2018-10-06T09:51:41.452Z,1380
2018-10-06T09:52:51.703Z,1390
2018-10-06T09:54:01.997Z,1405
2018-10-06T09:55:12.213Z,1375
2018-10-06T09:56:22.126Z,1420
2018-10-06T09:57:32.347Z,1365
2018-10-06T09:58:42.737Z,1415
2018-10-06T09:59:53.176Z,1340
2018-10-06T10:01:03.358Z,1415
2018-10-06T10:02:13.577Z,1355
2018-10-06T10:03:23.742Z,1390
2018-10-06T10:04:33.891Z,1405
2018-10-06T10:05:44.296Z,1390
2018-10-06T10:06:54.469Z,1400
2018-10-06T10:08:04.149Z,1470
2018-10-06T10:09:14.347Z,1270
2018-10-06T10:10:24.576Z,1335
2018-10-06T10:11:34.757Z,1375
2018-10-06T10:12:45.659Z,1455
2018-10-06T10:13:55.846Z,1440
2018-10-06T10:15:06.229Z,1435
2018-10-06T10:16:16.541Z,1420
2018-10-06T10:17:27.855Z,1450
2018-10-06T10:18:38.455Z,1510
2018-10-06T10:19:48.672Z,1250
2018-10-06T10:20:58.930Z,1365
2018-10-06T10:22:10.175Z,1410
2018-10-06T10:23:20.699Z,1410
2018-10-06T10:24:30.925Z,1400
2018-10-06T10:25:41.174Z,1300
2018-10-06T10:26:51.364Z,1320
2018-10-06T10:28:01.540Z,1310
2018-10-06T10:29:11.933Z,1325
2018-10-06T10:30:22.113Z,1230
2018-10-06T10:31:32.350Z,1200
2018-10-06T10:32:42.531Z,1215
2018-10-06T10:33:52.576Z,1195
2018-10-06T10:35:02.791Z,1330
2018-10-06T10:36:12.971Z,1320
2018-10-06T10:37:23.288Z,1395
2018-10-06T10:38:34.542Z,1250
2018-10-06T10:39:45.569Z,1215
2018-10-06T10:40:55.544Z,1170
2018-10-06T10:42:05.790Z,1250
2018-10-06T10:43:15.932Z,1315
2018-10-06T10:44:27.742Z,1385
2018-10-06T10:45:38.034Z,1400
2018-10-06T10:46:48.224Z,1275
2018-10-06T10:47:58.414Z,1320
2018-10-06T10:49:08.638Z,1410
2018-10-06T10:50:18.843Z,1350
2018-10-06T10:51:29.027Z,1510
2018-10-06T10:52:39.086Z,1665
2018-10-06T10:53:49.296Z,1690
2018-10-06T10:54:59.479Z,1620
2018-10-06T10:56:09.876Z,1480
2018-10-06T10:57:20.077Z,1500
2018-10-06T10:58:30.403Z,1565
2018-10-06T10:59:41.532Z,1515
2018-10-06T11:00:51.771Z,1410
2018-10-06T11:02:01.959Z,1475
2018-10-06T11:03:11.871Z,1380
2018-10-06T11:04:22.098Z,1410
2018-10-06T11:05:32.296Z,1415
2018-10-06T11:06:42.489Z,1420
2018-10-06T11:07:52.760Z,1505
2018-10-06T11:09:02.937Z,1480
2018-10-06T11:10:13.358Z,1275
2018-10-06T11:11:24.065Z,1310
2018-10-06T11:12:34.267Z,1390
2018-10-06T11:13:45.475Z,1335
2018-10-06T11:14:55.686Z,1340
2018-10-06T11:16:05.846Z,1380
2018-10-06T11:17:16.505Z,1320
2018-10-06T11:18:26.544Z,1475
2018-10-06T11:19:36.861Z,1470
2018-10-06T11:20:47.086Z,1460
2018-10-06T11:21:57.348Z,1450
2018-10-06T11:23:07.551Z,1350
2018-10-06T11:24:18.045Z,1450
2018-10-06T11:25:28.241Z,1435
2018-10-06T11:26:38.193Z,1370
2018-10-06T11:27:48.637Z,1390
2018-10-06T11:28:58.824Z,1380
2018-10-06T11:30:09.007Z,1390
2018-10-06T11:31:19.210Z,1415
2018-10-06T11:32:29.629Z,1465
2018-10-06T11:33:39.808Z,1355
2018-10-06T11:34:50.025Z,1280
2018-10-06T11:36:02.418Z,1285
2018-10-06T11:37:12.858Z,1310
2018-10-06T11:38:23.580Z,1280
2018-10-06T11:39:33.677Z,1325
2018-10-06T11:40:43.905Z,1305
2018-10-06T11:41:54.248Z,1240
2018-10-06T11:43:04.660Z,1305
2018-10-06T11:44:14.659Z,1320
2018-10-06T11:45:24.873Z,1210
2018-10-06T11:46:35.050Z,1250
2018-10-06T11:47:45.210Z,1290
2018-10-06T11:48:55.646Z,1275
2018-10-06T11:50:06.180Z,1285
2018-10-06T11:51:16.421Z,1320
2018-10-06T11:52:26.608Z,1345
2018-10-06T11:53:36.977Z,1395
2018-10-06T11:54:48.200Z,1430
2018-10-06T11:55:58.371Z,1405
2018-10-06T11:57:08.580Z,1370
2018-10-06T11:58:18.796Z,1350
2018-10-06T11:59:28.971Z,1370
2018-10-06T12:00:38.895Z,1385
2018-10-06T12:01:49.482Z,1440
2018-10-06T12:02:59.707Z,1390
2018-10-06T12:04:09.921Z,1405
2018-10-06T12:05:20.132Z,1415
2018-10-06T12:06:30.334Z,1410
2018-10-06T12:07:41.489Z,1380
2018-10-06T12:08:51.688Z,1405
2018-10-06T12:10:01.897Z,1370
2018-10-06T12:11:12.083Z,1390
2018-10-06T12:12:22.297Z,1460
2018-10-06T12:13:32.517Z,1450
2018-10-06T12:16:01.808Z,1435
2018-10-06T12:17:11.995Z,1415
2018-10-06T12:18:22.199Z,1445
2018-10-06T12:19:32.388Z,1430
2018-10-06T12:20:43.019Z,1425
2018-10-06T12:21:53.522Z,1415
2018-10-06T12:23:03.694Z,1395
2018-10-06T12:24:13.778Z,1380
2018-10-06T12:25:24.206Z,1360
2018-10-06T12:29:07.325Z,1310
2018-10-06T12:30:20.891Z,1295
2018-10-06T12:31:35.952Z,1335
2018-10-06T12:34:02.778Z,1335
2018-10-06T12:35:14.774Z,1345
2018-10-06T12:37:40.074Z,1350
2018-10-06T12:38:50.261Z,1335
2018-10-06T12:40:00.167Z,1325
2018-10-06T12:41:10.473Z,1300
2018-10-06T12:42:21.320Z,1295
2018-10-06T12:43:31.496Z,1295
2018-10-06T12:44:41.683Z,1290
2018-10-06T12:45:52.182Z,1300
2018-10-06T12:47:02.548Z,1275
2018-10-06T12:48:13.005Z,1285
2018-10-06T12:49:23.402Z,1280
2018-10-06T12:50:33.390Z,1305
2018-10-06T12:51:43.408Z,1270
2018-10-06T12:52:53.232Z,1250
2018-10-06T12:54:03.429Z,1270
2018-10-06T12:55:13.663Z,1265
2018-10-06T12:56:23.952Z,1255
2018-10-06T12:57:34.122Z,1245
2018-10-06T12:58:44.013Z,1220
2018-10-06T12:59:54.232Z,1205
2018-10-06T13:01:03.905Z,1220
2018-10-06T13:02:14.073Z,1175
2018-10-06T13:03:24.534Z,1135
2018-10-06T13:04:34.864Z,1165
2018-10-06T13:05:45.060Z,1120
2018-10-06T13:06:55.311Z,1095
2018-10-06T13:08:05.517Z,1180
2018-10-06T13:09:15.800Z,1210
2018-10-06T13:10:25.759Z,1170
2018-10-06T13:11:35.858Z,1145
2018-10-06T13:12:46.057Z,1080
2018-10-06T13:13:56.484Z,1035
2018-10-06T13:15:06.667Z,1020
2018-10-06T13:16:16.614Z,1005
2018-10-06T13:17:26.890Z,1015
2018-10-06T13:18:37.132Z,1140
2018-10-06T13:19:47.302Z,1110
2018-10-06T13:20:57.535Z,990
2018-10-06T13:22:07.858Z,1015
2018-10-06T13:23:18.215Z,1035
2018-10-06T13:24:28.371Z,935
2018-10-06T13:25:38.577Z,1080
2018-10-06T13:26:48.468Z,1110
2018-10-06T13:27:58.841Z,1085
2018-10-06T13:29:09.068Z,1130
2018-10-06T13:30:19.238Z,1140
2018-10-06T13:31:29.560Z,1080
2018-10-06T13:32:39.852Z,1140
2018-10-06T13:33:50.056Z,1135
2018-10-06T13:35:00.269Z,1050
2018-10-06T13:36:10.434Z,1065
2018-10-06T13:37:20.617Z,1095
2018-10-06T13:38:30.793Z,1025
2018-10-06T13:39:41.333Z,1065
2018-10-06T13:40:51.567Z,1065
2018-10-06T13:42:01.723Z,990
2018-10-06T13:43:11.809Z,960
2018-10-06T13:44:22.071Z,795
2018-10-06T13:45:32.271Z,750
2018-10-06T13:46:42.570Z,925
2018-10-06T13:47:53.133Z,945
2018-10-06T13:49:03.376Z,960
2018-10-06T13:50:13.054Z,955
2018-10-06T13:51:23.235Z,890
2018-10-06T13:52:34.676Z,885
2018-10-06T13:53:44.855Z,940
2018-10-06T13:54:55.042Z,950
2018-10-06T13:56:05.226Z,900
2018-10-06T13:57:15.155Z,895
2018-10-06T13:58:25.535Z,925
2018-10-06T13:59:35.970Z,970
2018-10-06T14:00:45.831Z,940
2018-10-06T14:01:55.992Z,965
2018-10-06T14:03:06.157Z,965
2018-10-06T14:04:17.307Z,975
2018-10-06T14:05:27.467Z,990
2018-10-06T14:06:37.834Z,645
2018-10-06T14:07:47.996Z,785
2018-10-06T14:08:58.166Z,895
2018-10-06T14:10:07.961Z,900
2018-10-06T14:11:18.135Z,905
2018-10-06T14:12:28.330Z,905
2018-10-06T14:13:38.627Z,895
2018-10-06T14:14:49.036Z,880
2018-10-06T14:15:59.191Z,905
2018-10-06T14:17:09.418Z,880
2018-10-06T14:18:19.597Z,755
2018-10-06T14:19:29.773Z,875
2018-10-06T14:20:39.947Z,850
2018-10-06T14:21:50.192Z,845
2018-10-06T14:23:00.338Z,850
2018-10-06T14:24:11.537Z,840
2018-10-06T14:25:21.768Z,830
2018-10-06T14:26:32.580Z,825
2018-10-06T14:27:42.831Z,815
2018-10-06T14:28:53.099Z,810
2018-10-06T14:30:03.278Z,695
2018-10-06T14:31:13.433Z,735
2018-10-06T14:32:23.736Z,565
2018-10-06T14:33:33.918Z,665
2018-10-06T14:34:44.101Z,715
2018-10-06T14:35:54.284Z,765
2018-10-06T14:37:04.717Z,695
2018-10-06T14:38:14.926Z,605
2018-10-06T14:39:25.358Z,685
2018-10-06T14:40:35.621Z,680
2018-10-06T14:41:46.020Z,705
2018-10-06T14:42:55.944Z,415
2018-10-06T14:44:06.561Z,170
2018-10-06T14:45:16.781Z,165
2018-10-06T14:46:26.650Z,175
2018-10-06T14:47:37.179Z,165
2018-10-06T14:48:47.101Z,165
2018-10-06T14:49:57.343Z,165
2018-10-06T14:51:07.558Z,165
2018-10-06T14:52:17.812Z,175
2018-10-06T14:53:28.274Z,180
2018-10-06T14:54:38.438Z,195
2018-10-06T14:55:48.437Z,175
2018-10-06T14:56:59.298Z,170
2018-10-06T14:58:09.447Z,165
2018-10-06T14:59:19.649Z,160
2018-10-06T15:00:29.834Z,155
2018-10-06T15:01:41.185Z,155
2018-10-06T15:02:51.349Z,145
2018-10-06T15:04:01.546Z,145
2018-10-06T15:05:11.718Z,140
2018-10-06T15:06:21.653Z,145
2018-10-06T15:07:31.839Z,135
2018-10-06T15:08:43.007Z,175
2018-10-06T15:09:53.204Z,200
2018-10-06T15:11:03.359Z,175
2018-10-06T15:12:13.520Z,175
2018-10-06T15:13:23.443Z,150
2018-10-06T15:14:33.599Z,145
2018-10-06T15:15:43.793Z,150
2018-10-06T15:16:53.999Z,175
2018-10-06T15:18:04.182Z,145
2018-10-06T15:19:14.112Z,125
2018-10-06T15:20:24.268Z,130
2018-10-06T15:21:34.973Z,125
2018-10-06T15:22:45.632Z,125
2018-10-06T15:23:55.797Z,125
2018-10-06T15:25:06.993Z,115
2018-10-06T15:26:17.341Z,115
2018-10-06T15:27:27.492Z,115
2018-10-06T15:28:37.890Z,115
2018-10-06T15:29:47.805Z,115
2018-10-06T15:30:58.059Z,115
2018-10-06T15:32:08.358Z,110
2018-10-06T15:33:18.770Z,105
2018-10-06T15:34:28.957Z,105
2018-10-06T15:35:39.347Z,105
2018-10-06T15:36:50.291Z,100
2018-10-06T15:38:00.929Z,100
2018-10-06T15:39:11.220Z,95
2018-10-06T15:40:21.606Z,95
2018-10-06T15:41:31.827Z,90
2018-10-06T15:42:42.180Z,85
2018-10-06T15:43:52.469Z,85
2018-10-06T15:45:02.927Z,80
2018-10-06T15:46:13.095Z,75
2018-10-06T15:47:23.057Z,70
2018-10-06T15:48:33.352Z,70
2018-10-06T15:49:43.266Z,65
2018-10-06T15:50:53.566Z,65
2018-10-06T15:52:03.737Z,65
2018-10-06T15:53:13.942Z,60
2018-10-06T15:54:24.108Z,55
2018-10-06T15:55:34.266Z,55
2018-10-06T15:56:44.840Z,50
2018-10-06T15:57:55.075Z,50
2018-10-06T15:59:05.289Z,45
2018-10-06T16:00:15.894Z,45
2018-10-06T16:01:26.357Z,40
2018-10-06T16:02:37.098Z,40
2018-10-06T16:03:47.336Z,35
2018-10-06T16:04:57.537Z,35
2018-10-06T16:06:07.770Z,35
2018-10-06T16:07:17.960Z,35
2018-10-06T16:08:28.134Z,35
2018-10-06T16:09:38.090Z,30
2018-10-06T16:10:48.271Z,30
2018-10-06T16:11:58.456Z,25
2018-10-06T16:13:08.605Z,25
2018-10-06T16:14:18.794Z,20
2018-10-06T16:15:28.979Z,20
2018-10-06T16:16:39.214Z,20
2018-10-06T16:17:49.092Z,15
2018-10-06T16:18:59.140Z,15
2018-10-06T16:20:09.305Z,15
2018-10-06T16:21:19.531Z,15
2018-10-06T16:22:29.726Z,10
2018-10-06T16:23:39.927Z,10
2018-10-06T16:24:50.359Z,10
2018-10-06T16:26:00.534Z,10
2018-10-06T16:27:10.967Z,10
2018-10-06T16:28:21.165Z,10
2018-10-06T16:29:31.311Z,10
2018-10-06T16:30:41.472Z,5
2018-10-06T16:31:51.654Z,5
2018-10-06T16:33:01.841Z,5
2018-10-06T16:34:12.289Z,5
2018-10-06T16:35:22.512Z,5
2018-10-06T16:36:32.744Z,5
2018-10-06T16:37:43.085Z,5
2018-10-06T16:38:53.386Z,5